createdAt,value
2018-08-18T00:00:05.034Z,2.93
2018-08-18T00:02:37.078Z,3.07
2018-08-18T00:05:07.009Z,4.70
2018-08-18T00:07:35.261Z,2.80
2018-08-18T00:10:05.191Z,3.10
2018-08-18T00:12:33.428Z,3.13
2018-08-18T00:15:01.623Z,3.30
2018-08-18T00:17:29.875Z,3.10
2018-08-18T00:19:58.079Z,3.40
2018-08-18T00:22:26.414Z,3.27
2018-08-18T00:24:58.464Z,4.40
2018-08-18T00:27:27.311Z,3.50
2018-08-18T00:30:00.974Z,3.77
2018-08-18T00:32:29.664Z,3.73
2018-08-18T00:34:57.833Z,3.73
2018-08-18T00:37:26.322Z,3.60
2018-08-18T00:39:55.321Z,4.83
2018-08-18T00:42:23.706Z,5.87
2018-08-18T00:44:51.921Z,4.07
2018-08-18T00:47:20.138Z,4.93
2018-08-18T00:49:48.410Z,4.20
2018-08-18T00:52:16.630Z,5.07
2018-08-18T00:54:44.850Z,5.70
2018-08-18T00:57:24.993Z,4.60
2018-08-18T00:59:54.658Z,5.50
2018-08-18T01:02:22.938Z,6.67
2018-08-18T01:05:00.290Z,4.77
2018-08-18T01:07:29.597Z,5.20
2018-08-18T01:09:58.286Z,4.30
2018-08-18T01:12:27.375Z,4.60
2018-08-18T01:14:56.147Z,4.57
2018-08-18T01:17:24.661Z,5.33
2018-08-18T01:19:53.614Z,5.57
2018-08-18T01:22:21.821Z,10.20
2018-08-18T01:24:51.496Z,7.90
2018-08-18T01:27:19.766Z,6.00
2018-08-18T01:29:53.191Z,5.67
2018-08-18T01:32:21.404Z,6.17
2018-08-18T01:34:50.657Z,5.90
2018-08-18T01:37:19.584Z,6.87
2018-08-18T01:39:50.202Z,6.57
2018-08-18T01:42:18.398Z,5.90
2018-08-18T01:44:46.607Z,6.70
2018-08-18T01:47:14.840Z,7.40
2018-08-18T01:49:43.098Z,6.63
2018-08-18T01:52:16.721Z,6.87
2018-08-18T01:54:45.601Z,7.03
2018-08-18T01:57:14.582Z,6.73
2018-08-18T01:59:44.009Z,6.70
2018-08-18T02:02:19.979Z,6.77
2018-08-18T02:04:48.544Z,6.67
2018-08-18T02:07:21.063Z,6.30
2018-08-18T02:09:49.396Z,7.70
2018-08-18T02:12:17.591Z,6.90
2018-08-18T02:14:45.918Z,7.90
2018-08-18T02:17:24.223Z,7.03
2018-08-18T02:19:52.692Z,7.33
2018-08-18T02:22:21.731Z,6.87
2018-08-18T02:24:49.949Z,6.57
2018-08-18T02:27:18.181Z,7.10
2018-08-18T02:29:57.699Z,7.87
2018-08-18T02:32:30.571Z,7.30
2018-08-18T02:34:58.930Z,7.20
2018-08-18T02:37:28.020Z,9.30
2018-08-18T02:39:56.282Z,10.00
2018-08-18T02:42:30.833Z,9.83
2018-08-18T02:44:58.999Z,10.27
2018-08-18T02:47:27.209Z,9.53
2018-08-18T02:49:55.963Z,9.00
2018-08-18T02:52:27.168Z,8.83
2018-08-18T02:55:01.153Z,9.60
2018-08-18T02:57:30.506Z,8.70
2018-08-18T03:00:00.218Z,8.50
2018-08-18T03:02:28.477Z,9.77
2018-08-18T03:04:56.650Z,9.43
2018-08-18T03:07:25.426Z,9.80
2018-08-18T03:09:53.950Z,10.37
2018-08-18T03:12:23.870Z,9.73
2018-08-18T03:14:52.086Z,8.87
2018-08-18T03:17:20.330Z,9.73
2018-08-18T03:19:48.597Z,11.37
2018-08-18T03:22:16.821Z,9.30
2018-08-18T03:24:45.022Z,9.30
2018-08-18T03:27:13.267Z,10.97
2018-08-18T03:29:47.671Z,10.03
2018-08-18T03:32:15.913Z,12.27
2018-08-18T03:34:44.131Z,11.97
2018-08-18T03:37:26.034Z,10.70
2018-08-18T03:39:54.321Z,11.30
2018-08-18T03:42:28.263Z,11.30
2018-08-18T03:44:56.865Z,14.40
2018-08-18T03:47:25.072Z,13.30
2018-08-18T03:49:53.306Z,10.30
2018-08-18T03:52:21.525Z,10.57
2018-08-18T03:54:49.728Z,11.00
2018-08-18T03:57:17.945Z,11.03
2018-08-18T03:59:46.191Z,10.80
2018-08-18T04:02:14.422Z,10.23
2018-08-18T04:04:43.139Z,14.23
2018-08-18T04:07:11.538Z,10.67
2018-08-18T04:09:39.919Z,11.70
2018-08-18T04:12:09.523Z,11.87
2018-08-18T04:14:43.934Z,11.47
2018-08-18T04:17:24.253Z,11.77
2018-08-18T04:19:52.473Z,13.93
2018-08-18T04:22:22.085Z,17.67
2018-08-18T04:24:50.483Z,16.60
2018-08-18T04:27:32.205Z,12.03
2018-08-18T04:30:00.426Z,13.63
2018-08-18T04:32:28.654Z,13.20
2018-08-18T04:34:56.882Z,14.97
2018-08-18T04:37:25.071Z,13.63
2018-08-18T04:39:53.329Z,13.87
2018-08-18T04:42:21.522Z,13.63
2018-08-18T04:44:49.763Z,14.20
2018-08-18T04:47:29.217Z,15.47
2018-08-18T04:49:57.443Z,13.50
2018-08-18T04:52:25.651Z,13.40
2018-08-18T04:54:53.991Z,13.53
2018-08-18T04:57:22.230Z,14.90
2018-08-18T04:59:50.746Z,19.50
2018-08-18T05:02:19.610Z,16.10
2018-08-18T05:04:47.910Z,15.07
2018-08-18T05:07:16.148Z,14.17
2018-08-18T05:09:44.329Z,14.17
2018-08-18T05:12:12.831Z,17.27
2018-08-18T05:14:41.053Z,18.50
2018-08-18T05:17:09.297Z,16.20
2018-08-18T05:19:37.573Z,16.67
2018-08-18T05:22:05.779Z,14.07
2018-08-18T05:24:34.055Z,16.23
2018-08-18T05:27:10.355Z,17.67
2018-08-18T05:29:38.694Z,15.10
2018-08-18T05:32:08.349Z,18.83
2018-08-18T05:34:36.650Z,19.97
2018-08-18T05:37:04.972Z,18.80
2018-08-18T05:39:33.235Z,21.10
2018-08-18T05:42:02.067Z,21.03
2018-08-18T05:44:30.385Z,20.50
2018-08-18T05:46:58.609Z,23.53
2018-08-18T05:49:26.897Z,18.80
2018-08-18T05:51:55.121Z,22.43
2018-08-18T05:54:25.970Z,24.80
2018-08-18T05:56:54.206Z,21.77
2018-08-18T05:59:22.448Z,20.07
2018-08-18T06:01:50.717Z,20.87
2018-08-18T06:04:20.258Z,24.90
2018-08-18T06:06:49.206Z,19.93
2018-08-18T06:09:19.254Z,19.33
2018-08-18T06:11:47.703Z,19.30
2018-08-18T06:14:16.503Z,21.17
2018-08-18T06:16:45.412Z,21.57
2018-08-18T06:19:13.690Z,19.23
2018-08-18T06:21:41.964Z,18.00
2018-08-18T06:24:10.446Z,19.50
2018-08-18T06:26:38.669Z,19.20
2018-08-18T06:29:06.941Z,19.67
2018-08-18T06:31:49.507Z,20.13
2018-08-18T06:34:17.785Z,19.20
2018-08-18T06:36:46.011Z,17.30
2018-08-18T06:39:14.227Z,21.10
2018-08-18T06:41:42.560Z,20.80
2018-08-18T06:44:10.650Z,18.50
2018-08-18T06:46:38.889Z,22.53
2018-08-18T06:49:07.114Z,21.50
2018-08-18T06:51:35.322Z,22.97
2018-08-18T06:54:03.678Z,20.17
2018-08-18T06:56:31.926Z,21.33
2018-08-18T06:59:04.407Z,18.80
2018-08-18T07:01:32.653Z,20.53
2018-08-18T07:04:00.865Z,17.90
2018-08-18T07:06:29.041Z,19.70
2018-08-18T07:08:57.257Z,20.37
2018-08-18T07:11:25.479Z,18.27
2018-08-18T07:13:53.681Z,18.77
2018-08-18T07:16:21.938Z,18.30
2018-08-18T07:18:50.288Z,22.03
2018-08-18T07:21:18.485Z,20.73
2018-08-18T07:23:46.711Z,19.90
2018-08-18T07:26:14.975Z,16.73
2018-08-18T07:28:43.340Z,17.67
2018-08-18T07:31:11.401Z,16.90
2018-08-18T07:33:39.663Z,18.87
2018-08-18T07:36:07.910Z,17.87
2018-08-18T07:38:36.126Z,20.67
2018-08-18T07:41:04.356Z,20.60
2018-08-18T07:43:33.971Z,20.37
2018-08-18T07:46:04.593Z,22.43
2018-08-18T07:48:32.829Z,20.23
2018-08-18T07:51:01.100Z,21.50
2018-08-18T07:53:29.441Z,21.33
2018-08-18T07:55:57.570Z,20.70
2018-08-18T07:58:26.000Z,25.27
2018-08-18T08:00:56.665Z,22.00
2018-08-18T08:03:24.913Z,24.23
2018-08-18T08:05:53.305Z,23.83
2018-08-18T08:08:21.562Z,21.27
2018-08-18T08:10:49.766Z,21.20
2018-08-18T08:13:18.005Z,22.30
2018-08-18T08:15:46.255Z,23.83
2018-08-18T08:18:15.560Z,24.67
2018-08-18T08:20:43.705Z,18.60
2018-08-18T08:23:11.913Z,22.60
2018-08-18T08:25:40.217Z,20.50
2018-08-18T08:28:08.453Z,30.10
2018-08-18T08:30:36.765Z,39.30
2018-08-18T08:33:05.040Z,26.10
2018-08-18T08:35:36.614Z,21.97
2018-08-18T08:38:04.990Z,21.50
2018-08-18T08:40:33.232Z,22.20
2018-08-18T08:43:01.421Z,23.50
2018-08-18T08:45:29.645Z,21.10
2018-08-18T08:47:57.869Z,21.07
2018-08-18T08:50:26.112Z,20.20
2018-08-18T08:52:56.404Z,22.17
2018-08-18T08:55:26.798Z,23.90
2018-08-18T08:57:55.107Z,21.07
2018-08-18T09:00:23.333Z,24.30
2018-08-18T09:02:51.587Z,23.47
2018-08-18T09:05:19.999Z,21.10
2018-08-18T09:07:48.364Z,25.70
2018-08-18T09:10:17.107Z,24.50
2018-08-18T09:12:45.350Z,26.03
2018-08-18T09:15:14.473Z,27.70
2018-08-18T09:17:42.702Z,26.10
2018-08-18T09:20:19.931Z,24.07
2018-08-18T09:22:56.965Z,23.93
2018-08-18T09:25:26.883Z,24.20
2018-08-18T09:27:56.311Z,24.67
2018-08-18T09:30:26.499Z,25.20
2018-08-18T09:32:54.874Z,20.37
2018-08-18T09:35:23.194Z,23.20
2018-08-18T09:37:56.072Z,20.93
2018-08-18T09:40:24.406Z,21.07
2018-08-18T09:42:52.643Z,22.27
2018-08-18T09:45:20.990Z,24.93
2018-08-18T09:47:49.218Z,60.90
2018-08-18T09:50:17.416Z,24.70
2018-08-18T09:52:45.678Z,24.13
2018-08-18T09:55:14.078Z,20.40
2018-08-18T09:57:42.327Z,21.37
2018-08-18T10:00:13.695Z,20.20
2018-08-18T10:02:42.169Z,21.97
2018-08-18T10:05:10.746Z,22.20
2018-08-18T10:07:39.085Z,20.90
2018-08-18T10:10:10.170Z,20.33
2018-08-18T10:12:38.570Z,20.47
2018-08-18T10:15:06.791Z,20.90
2018-08-18T10:17:35.102Z,24.20
2018-08-18T10:20:03.412Z,20.67
2018-08-18T10:22:31.644Z,20.60
2018-08-18T10:24:59.872Z,24.47
2018-08-18T10:27:28.413Z,20.83
2018-08-18T10:29:56.634Z,20.20
2018-08-18T10:32:24.825Z,20.47
2018-08-18T10:34:53.058Z,19.60
2018-08-18T10:37:21.271Z,19.80
2018-08-18T10:39:50.864Z,19.37
2018-08-18T10:42:24.334Z,21.53
2018-08-18T10:44:57.959Z,19.93
2018-08-18T10:47:26.142Z,20.40
2018-08-18T10:50:05.875Z,17.13
2018-08-18T10:52:45.630Z,18.37
2018-08-18T10:55:15.000Z,17.97
2018-08-18T10:57:56.111Z,19.50
2018-08-18T11:00:26.399Z,17.63
2018-08-18T11:02:55.820Z,16.30
2018-08-18T11:05:25.457Z,17.50
2018-08-18T11:07:59.874Z,16.97
2018-08-18T11:10:30.011Z,13.10
2018-08-18T11:12:58.243Z,11.97
2018-08-18T11:15:26.804Z,13.10
2018-08-18T11:17:55.337Z,14.40
2018-08-18T11:20:25.710Z,13.63
2018-08-18T11:22:58.520Z,12.63
2018-08-18T11:25:29.244Z,12.43
2018-08-18T11:27:58.155Z,11.40
2018-08-18T11:30:26.855Z,11.13
2018-08-18T11:32:56.752Z,10.97
2018-08-18T11:35:25.095Z,10.37
2018-08-18T11:37:56.699Z,12.00
2018-08-18T11:40:25.883Z,9.93
2018-08-18T11:42:56.918Z,11.87
2018-08-18T11:45:27.126Z,11.93
2018-08-18T11:47:58.898Z,11.20
2018-08-18T11:50:27.941Z,9.83
2018-08-18T11:52:56.343Z,12.10
2018-08-18T11:55:24.663Z,10.50
2018-08-18T11:57:54.547Z,9.90
2018-08-18T12:00:22.898Z,11.27
2018-08-18T12:02:52.023Z,10.37
2018-08-18T12:05:20.311Z,9.07
2018-08-18T12:07:50.021Z,11.27
2018-08-18T12:10:18.405Z,9.50
2018-08-18T12:12:46.722Z,9.13
2018-08-18T12:15:15.015Z,10.70
2018-08-18T12:18:02.093Z,10.13
2018-08-18T12:20:30.419Z,9.10
2018-08-18T12:22:58.569Z,8.73
2018-08-18T12:25:26.894Z,10.60
2018-08-18T12:27:55.219Z,9.77
2018-08-18T12:30:30.334Z,10.90
2018-08-18T12:33:00.081Z,11.13
2018-08-18T12:35:31.630Z,10.23
2018-08-18T12:38:00.254Z,9.80
2018-08-18T12:40:28.942Z,9.53
2018-08-18T12:42:57.221Z,9.43
2018-08-18T12:45:25.465Z,9.60
2018-08-18T12:48:02.369Z,11.40
2018-08-18T12:50:31.326Z,9.97
2018-08-18T12:52:59.628Z,8.50
2018-08-18T12:55:28.101Z,9.13
2018-08-18T12:57:56.397Z,7.83
2018-08-18T13:00:24.741Z,7.87
2018-08-18T13:02:54.383Z,8.43
2018-08-18T13:05:25.465Z,8.10
2018-08-18T13:07:54.117Z,8.53
2018-08-18T13:10:26.322Z,8.10
2018-08-18T13:12:55.378Z,8.77
2018-08-18T13:15:23.644Z,9.17
2018-08-18T13:17:52.378Z,8.10
2018-08-18T13:20:23.215Z,8.43
2018-08-18T13:22:52.109Z,7.00
2018-08-18T13:25:20.454Z,8.03
2018-08-18T13:27:54.193Z,10.40
2018-08-18T13:30:23.570Z,9.03
2018-08-18T13:32:54.552Z,7.80
2018-08-18T13:35:22.829Z,9.17
2018-08-18T13:37:51.546Z,9.30
2018-08-18T13:40:22.439Z,7.90
2018-08-18T13:42:50.739Z,7.67
2018-08-18T13:45:23.483Z,7.47
2018-08-18T13:47:53.960Z,7.90
2018-08-18T13:50:22.186Z,8.27
2018-08-18T13:52:50.451Z,7.40
2018-08-18T13:55:18.693Z,7.13
2018-08-18T13:57:46.956Z,7.00
2018-08-18T14:00:18.857Z,6.50
2018-08-18T14:02:47.208Z,7.57
2018-08-18T14:05:20.050Z,7.87
2018-08-18T14:07:55.693Z,7.80
2018-08-18T14:10:24.070Z,7.93
2018-08-18T14:12:53.001Z,7.23
2018-08-18T14:15:21.196Z,7.00
2018-08-18T14:17:57.952Z,6.27
2018-08-18T14:20:26.498Z,6.53
2018-08-18T14:22:59.011Z,6.63
2018-08-18T14:25:27.131Z,5.93
2018-08-18T14:28:02.510Z,5.53
2018-08-18T14:30:32.601Z,7.10
2018-08-18T14:33:00.826Z,6.53
2018-08-18T14:35:29.088Z,5.93
2018-08-18T14:37:57.352Z,6.20
2018-08-18T14:40:25.571Z,4.97
2018-08-18T14:42:53.780Z,5.63
2018-08-18T14:45:23.534Z,5.00
2018-08-18T14:47:51.846Z,6.03
2018-08-18T14:50:30.094Z,5.10
2018-08-18T14:52:58.882Z,4.87
2018-08-18T14:55:27.086Z,5.17
2018-08-18T14:58:01.333Z,5.77
2018-08-18T15:00:29.586Z,6.30
2018-08-18T15:02:57.850Z,5.10
2018-08-18T15:05:26.123Z,5.67
2018-08-18T15:07:55.414Z,5.13
2018-08-18T15:10:37.174Z,5.20
2018-08-18T15:13:06.227Z,5.00
2018-08-18T15:15:35.181Z,4.93
2018-08-18T15:18:04.919Z,6.43
2018-08-18T15:20:34.745Z,5.30
2018-08-18T15:23:04.332Z,5.33
2018-08-18T15:25:33.622Z,5.63
2018-08-18T15:28:03.426Z,5.50
2018-08-18T15:30:32.153Z,5.33
2018-08-18T15:33:00.553Z,5.37
2018-08-18T15:35:28.792Z,6.03
2018-08-18T15:37:57.903Z,12.67
2018-08-18T15:40:26.936Z,6.17
2018-08-18T15:42:56.324Z,5.90
2018-08-18T15:45:25.475Z,6.10
2018-08-18T15:47:53.916Z,6.43
2018-08-18T15:50:22.539Z,5.20
2018-08-18T15:52:51.185Z,5.20
2018-08-18T15:55:19.500Z,5.50
2018-08-18T15:57:47.689Z,7.53
2018-08-18T16:00:29.216Z,6.17
2018-08-18T16:02:58.403Z,5.93
2018-08-18T16:05:27.466Z,5.80
2018-08-18T16:07:55.738Z,5.63
2018-08-18T16:10:23.948Z,6.70
2018-08-18T16:12:52.201Z,5.53
2018-08-18T16:15:22.111Z,5.80
2018-08-18T16:17:50.853Z,5.63
2018-08-18T16:20:24.122Z,7.37
2018-08-18T16:22:54.848Z,5.70
2018-08-18T16:25:39.688Z,6.50
2018-08-18T16:28:09.163Z,6.73
2018-08-18T16:30:38.067Z,8.27
2018-08-18T16:33:16.234Z,5.53
2018-08-18T16:35:45.260Z,6.63
2018-08-18T16:38:13.459Z,6.30
2018-08-18T16:40:41.937Z,6.63
2018-08-18T16:43:11.483Z,7.60
2018-08-18T16:45:39.829Z,5.73
2018-08-18T16:48:09.414Z,6.40
2018-08-18T16:50:40.968Z,6.50
2018-08-18T16:53:10.452Z,6.53
2018-08-18T16:55:40.360Z,5.63
2018-08-18T16:58:08.612Z,6.83
2018-08-18T17:00:54.454Z,5.90
2018-08-18T17:03:30.309Z,6.23
2018-08-18T17:05:59.558Z,5.80
2018-08-18T17:08:28.147Z,5.60
2018-08-18T17:10:56.379Z,5.93
2018-08-18T17:13:27.841Z,5.10
2018-08-18T17:15:56.238Z,5.80
2018-08-18T17:18:24.700Z,10.23
2018-08-18T17:20:57.693Z,5.23
2018-08-18T17:23:27.308Z,5.53
2018-08-18T17:25:55.503Z,10.30
2018-08-18T17:28:23.718Z,6.47
2018-08-18T17:30:52.765Z,6.97
2018-08-18T17:33:22.706Z,5.60
2018-08-18T17:35:51.270Z,5.80
2018-08-18T17:38:20.102Z,5.80
2018-08-18T17:40:48.325Z,6.07
2018-08-18T17:43:17.146Z,5.80
2018-08-18T17:46:02.179Z,4.77
2018-08-18T17:48:35.385Z,6.07
2018-08-18T17:51:04.204Z,8.77
2018-08-18T17:53:33.382Z,8.27
2018-08-18T17:56:04.550Z,6.00
2018-08-18T17:58:32.771Z,7.47
2018-08-18T18:01:01.955Z,7.10
2018-08-18T18:03:30.305Z,10.13
2018-08-18T18:05:58.527Z,9.23
2018-08-18T18:08:26.751Z,7.60
2018-08-18T18:10:54.991Z,7.03
2018-08-18T18:13:26.375Z,8.07
2018-08-18T18:15:54.655Z,5.73
2018-08-18T18:18:25.699Z,7.60
2018-08-18T18:20:55.073Z,6.83
2018-08-18T18:23:24.400Z,6.03
2018-08-18T18:25:52.696Z,9.03
2018-08-18T18:28:21.014Z,9.77
2018-08-18T18:30:52.775Z,7.63
2018-08-18T18:33:21.083Z,8.50
2018-08-18T18:35:49.942Z,6.13
2018-08-18T18:38:18.217Z,5.70
2018-08-18T18:40:46.683Z,6.17
2018-08-18T18:43:15.149Z,7.67
2018-08-18T18:45:43.479Z,7.47
2018-08-18T18:48:14.178Z,9.73
2018-08-18T18:50:47.493Z,5.80
2018-08-18T18:53:15.953Z,8.43
2018-08-18T18:55:51.818Z,8.50
2018-08-18T18:58:20.082Z,6.07
2018-08-18T19:01:05.510Z,8.10
2018-08-18T19:03:33.783Z,10.10
2018-08-18T19:06:02.035Z,8.30
2018-08-18T19:08:30.311Z,14.40
2018-08-18T19:10:58.530Z,8.20
2018-08-18T19:13:26.952Z,7.83
2018-08-18T19:15:55.395Z,7.23
2018-08-18T19:18:23.651Z,8.63
2018-08-18T19:20:51.897Z,7.13
2018-08-18T19:23:20.910Z,6.20
2018-08-18T19:25:50.273Z,10.93
2018-08-18T19:28:21.768Z,18.07
2018-08-18T19:30:50.017Z,12.40
2018-08-18T19:33:18.670Z,10.83
2018-08-18T19:35:48.145Z,10.43
2018-08-18T19:38:16.965Z,9.40
2018-08-18T19:40:46.363Z,9.50
2018-08-18T19:43:23.162Z,15.50
2018-08-18T19:45:51.862Z,10.00
2018-08-18T19:48:24.765Z,8.60
2018-08-18T19:50:58.442Z,7.70
2018-08-18T19:53:29.633Z,8.37
2018-08-18T19:55:58.913Z,9.73
2018-08-18T19:58:27.854Z,9.13
2018-08-18T20:00:56.126Z,9.23
2018-08-18T20:03:24.955Z,8.83
2018-08-18T20:05:53.191Z,9.20
2018-08-18T20:08:22.752Z,8.17
2018-08-18T20:10:58.959Z,8.67
2018-08-18T20:13:28.967Z,10.93
2018-08-18T20:15:58.729Z,9.80
2018-08-18T20:18:27.094Z,10.87
2018-08-18T20:20:57.732Z,11.70
2018-08-18T20:23:29.055Z,8.70
2018-08-18T20:25:57.303Z,9.30
2018-08-18T20:28:25.527Z,8.37
2018-08-18T20:30:53.759Z,9.47
2018-08-18T20:33:22.033Z,8.37
2018-08-18T20:35:50.581Z,10.00
2018-08-18T20:38:18.840Z,9.33
2018-08-18T20:40:47.458Z,9.47
2018-08-18T20:43:15.791Z,10.60
2018-08-18T20:45:47.651Z,9.00
2018-08-18T20:48:18.436Z,9.30
2018-08-18T20:50:47.017Z,9.47
2018-08-18T20:53:16.182Z,9.17
2018-08-18T20:55:52.265Z,8.63
2018-08-18T20:58:20.490Z,9.80
2018-08-18T21:00:48.757Z,9.60
2018-08-18T21:03:17.046Z,8.87
2018-08-18T21:05:45.272Z,8.77
2018-08-18T21:08:18.958Z,9.20
2018-08-18T21:10:47.625Z,9.40
2018-08-18T21:13:15.914Z,9.83
2018-08-18T21:15:44.181Z,9.90
2018-08-18T21:18:17.440Z,9.30
2018-08-18T21:20:45.828Z,9.80
2018-08-18T21:23:14.009Z,9.37
2018-08-18T21:25:46.035Z,10.37
2018-08-18T21:28:15.300Z,10.70
2018-08-18T21:30:43.561Z,9.50
2018-08-18T21:33:11.932Z,9.83
2018-08-18T21:35:40.717Z,11.57
2018-08-18T21:38:09.145Z,10.37
2018-08-18T21:40:37.397Z,9.30
2018-08-18T21:43:06.214Z,10.63
2018-08-18T21:45:39.862Z,10.57
2018-08-18T21:48:08.106Z,10.63
2018-08-18T21:50:36.325Z,11.20
2018-08-18T21:53:04.563Z,10.07
2018-08-18T21:55:32.816Z,10.03
2018-08-18T21:58:01.066Z,9.10
2018-08-18T22:00:35.436Z,9.63
2018-08-18T22:03:03.681Z,9.30
2018-08-18T22:05:33.119Z,10.63
2018-08-18T22:08:01.408Z,10.50
2018-08-18T22:10:29.667Z,10.30
2018-08-18T22:12:57.862Z,11.47
2018-08-18T22:15:26.159Z,10.10
2018-08-18T22:17:54.776Z,8.30
2018-08-18T22:20:23.700Z,10.77
2018-08-18T22:22:52.005Z,9.73
2018-08-18T22:25:20.546Z,11.70
2018-08-18T22:27:52.143Z,11.13
2018-08-18T22:30:21.438Z,9.67
2018-08-18T22:32:49.682Z,10.07
2018-08-18T22:35:17.919Z,8.53
2018-08-18T22:37:46.141Z,10.60
2018-08-18T22:40:14.395Z,11.70
2018-08-18T22:42:42.631Z,10.87
2018-08-18T22:45:19.507Z,9.73
2018-08-18T22:47:47.774Z,9.93
2018-08-18T22:50:16.086Z,9.00
2018-08-18T22:52:47.047Z,8.90
2018-08-18T22:55:15.508Z,9.90
2018-08-18T22:57:47.994Z,9.93
2018-08-18T23:00:16.240Z,10.27
2018-08-18T23:02:44.770Z,9.60
2018-08-18T23:05:13.066Z,10.27
2018-08-18T23:07:41.384Z,9.93
2018-08-18T23:10:10.350Z,9.60
2018-08-18T23:12:38.587Z,10.07
2018-08-18T23:15:06.897Z,10.07
2018-08-18T23:17:35.310Z,10.47
2018-08-18T23:20:03.536Z,10.03
2018-08-18T23:22:48.653Z,9.90
2018-08-18T23:27:50.589Z,10.30
2018-08-18T23:30:23.197Z,9.17
2018-08-18T23:32:51.418Z,9.30
2018-08-18T23:35:20.832Z,9.57
2018-08-18T23:37:49.108Z,10.20
2018-08-18T23:40:17.425Z,9.73
2018-08-18T23:42:45.678Z,10.67
2018-08-18T23:45:13.943Z,9.50
2018-08-18T23:47:42.269Z,9.03
2018-08-18T23:50:10.542Z,9.77
2018-08-18T23:52:53.271Z,10.47
2018-08-18T23:55:21.886Z,10.23
2018-08-18T23:57:51.710Z,9.77
